KFKA

Details ICAO KFKA
Name FILLMORE CO
Region United States
Timezone America/Chicago (UTC-5.0)
Plans Departing 0
Arriving 1
Stats Elevation 1,276 ft / 389 m (AMSL)
Location 43.676631° -92.179886°
Runways 1
Magnetic Variation 0.561° W
Sunrise 2018-05-23 10:37:26 UTC / 2018-05-23 05:37:26 Local
Sunset 2018-05-24 01:36:25 UTC / 2018-05-23 20:36:25 Local
Advertisement - Login to hide

Runways

ID Width Length Bearing (true) Bearing (mag) Surface Threshold Offset Overrun Length
11 75 ft / 23 m 4,001 ft / 1,220 m 107.69° 108.25° Asphalt 0 ft / 0 m 0 ft / 0 m
29 75 ft / 23 m 4,001 ft / 1,220 m 287.70° 288.26° Asphalt 0 ft / 0 m 0 ft / 0 m

Map

Weather


0- 5 10 15 20 25 30 35+ Temperature / ° C

Clouds and Precipitation
Forecast for 2018-05-24 00:00 UTC. Updated 2 hours ago

Ground ~20,000 ft ~40,000 ft Winds

METAR

KFKA 240055Z AUTO 14009KT 10SM CLR 24/18 A3010 RMK AO2 T02400176

TAF

Not found

Frequencies

Recorded 118.92 MHz AWOS 3
Approach 119.80 MHz ROCHESTER APP/DEP
Unicom 122.90 MHz CTAF
Warning: Do not use this data for real-world aviation or navigation. No guarantee of current accuracy is given.